createdAt,value
2024-02-20T00:00:27.138Z,5.80
2024-02-20T00:02:56.467Z,6.20
2024-02-20T00:05:24.270Z,5.80
2024-02-20T00:07:52.064Z,4.13
2024-02-20T00:10:20.185Z,6.63
2024-02-20T00:12:49.208Z,6.80
2024-02-20T00:15:17.181Z,7.23
2024-02-20T00:17:45.807Z,7.63
2024-02-20T00:20:15.477Z,6.47
2024-02-20T00:22:43.736Z,7.93
2024-02-20T00:25:12.115Z,5.07
2024-02-20T00:27:40.536Z,7.77
2024-02-20T00:30:11.736Z,9.40
2024-02-20T00:32:39.808Z,5.50
2024-02-20T00:35:09.920Z,4.97
2024-02-20T00:37:39.760Z,9.00
2024-02-20T00:40:09.603Z,7.40
2024-02-20T00:42:37.347Z,4.33
2024-02-20T00:45:05.846Z,5.40
2024-02-20T00:47:33.656Z,4.60
2024-02-20T00:50:01.543Z,6.70
2024-02-20T00:52:30.075Z,9.87
2024-02-20T00:54:59.530Z,7.10
2024-02-20T00:57:27.935Z,5.63
2024-02-20T00:59:56.220Z,7.90
2024-02-20T01:02:23.937Z,10.50
2024-02-20T01:04:51.800Z,7.83
2024-02-20T01:07:19.967Z,7.50
2024-02-20T01:09:48.021Z,8.97
2024-02-20T01:12:17.580Z,9.30
2024-02-20T01:14:45.611Z,8.03
2024-02-20T01:17:13.847Z,8.87
2024-02-20T01:19:41.855Z,7.87
2024-02-20T01:22:10.100Z,10.13
2024-02-20T01:24:38.060Z,10.97
2024-02-20T01:27:06.439Z,10.67
2024-02-20T01:29:35.553Z,11.40
2024-02-20T01:32:03.300Z,7.43
2024-02-20T01:34:31.158Z,7.30
2024-02-20T01:36:59.186Z,7.60
2024-02-20T01:39:27.335Z,7.80
2024-02-20T01:41:55.636Z,13.77
2024-02-20T01:44:23.346Z,7.93
2024-02-20T01:46:54.061Z,9.90
2024-02-20T01:49:22.412Z,9.53
2024-02-20T01:51:50.226Z,14.77
2024-02-20T01:54:18.249Z,8.57
2024-02-20T01:56:46.269Z,9.47
2024-02-20T01:59:14.124Z,11.03
2024-02-20T02:01:42.257Z,11.23
2024-02-20T02:04:12.056Z,12.37
2024-02-20T02:06:40.473Z,10.43
2024-02-20T02:09:08.698Z,8.00
2024-02-20T02:11:40.445Z,10.60
2024-02-20T02:14:08.883Z,16.80
2024-02-20T02:16:36.711Z,9.57
2024-02-20T02:19:05.331Z,9.07
2024-02-20T02:21:35.050Z,11.57
2024-02-20T02:24:02.798Z,12.37
2024-02-20T02:26:32.101Z,10.67
2024-02-20T02:28:59.827Z,9.53
2024-02-20T02:31:27.807Z,14.80
2024-02-20T02:33:55.673Z,14.17
2024-02-20T02:36:26.314Z,14.83
2024-02-20T02:38:54.512Z,21.00
2024-02-20T02:41:24.038Z,12.60
2024-02-20T02:43:53.378Z,15.27
2024-02-20T02:46:21.300Z,19.60
2024-02-20T02:48:50.575Z,17.40
2024-02-20T02:51:18.478Z,19.70
2024-02-20T02:53:46.542Z,17.90
2024-02-20T02:56:15.079Z,25.50
2024-02-20T02:58:43.254Z,19.13
2024-02-20T03:01:14.226Z,19.00
2024-02-20T03:03:42.645Z,20.90
2024-02-20T03:06:10.868Z,23.67
2024-02-20T03:08:39.245Z,20.83
2024-02-20T03:11:08.757Z,25.03
2024-02-20T03:13:37.027Z,23.63
2024-02-20T03:16:05.512Z,19.00
2024-02-20T03:18:35.646Z,26.37
2024-02-20T03:21:03.679Z,19.80
2024-02-20T03:23:32.005Z,20.53
2024-02-20T03:26:00.334Z,19.67
2024-02-20T03:28:30.048Z,24.03
2024-02-20T03:30:57.898Z,27.33
2024-02-20T03:33:27.702Z,21.37
2024-02-20T03:35:59.073Z,20.50
2024-02-20T03:38:27.128Z,26.70
2024-02-20T03:40:55.121Z,21.67
2024-02-20T03:43:23.076Z,25.33
2024-02-20T03:45:50.867Z,27.73
2024-02-20T03:48:19.249Z,26.07
2024-02-20T03:50:47.654Z,21.70
2024-02-20T03:53:17.103Z,23.57
2024-02-20T03:55:45.494Z,25.23
2024-02-20T03:58:13.975Z,22.80
2024-02-20T04:00:41.973Z,25.20
2024-02-20T04:03:10.429Z,21.37
2024-02-20T04:05:38.499Z,25.60
2024-02-20T04:08:06.362Z,20.13
2024-02-20T04:10:35.986Z,20.50
2024-02-20T04:13:04.070Z,26.43
2024-02-20T04:15:32.168Z,21.73
2024-02-20T04:18:00.057Z,18.70
2024-02-20T04:20:27.862Z,28.30
2024-02-20T04:22:55.840Z,23.10
2024-02-20T04:25:23.714Z,24.63
2024-02-20T04:27:53.685Z,23.73
2024-02-20T04:30:21.490Z,22.93
2024-02-20T04:32:49.638Z,19.53
2024-02-20T04:35:17.447Z,21.53
2024-02-20T04:37:45.684Z,18.73
2024-02-20T04:40:15.026Z,18.67
2024-02-20T04:42:43.059Z,21.27
2024-02-20T04:45:12.802Z,22.30
2024-02-20T04:47:40.591Z,24.60
2024-02-20T04:50:10.326Z,23.00
2024-02-20T04:52:38.308Z,22.73
2024-02-20T04:55:07.317Z,18.30
2024-02-20T04:57:35.365Z,20.63
2024-02-20T05:00:06.711Z,19.60
2024-02-20T05:02:38.374Z,23.43
2024-02-20T05:05:06.705Z,21.87
2024-02-20T05:07:35.111Z,22.47
2024-02-20T05:10:03.079Z,19.60
2024-02-20T05:12:30.887Z,20.13
2024-02-20T05:14:58.845Z,16.93
2024-02-20T05:17:26.838Z,25.13
2024-02-20T05:19:55.987Z,16.90
2024-02-20T05:22:23.769Z,20.20
2024-02-20T05:24:51.966Z,18.83
2024-02-20T05:27:19.733Z,18.63
2024-02-20T05:29:47.542Z,24.37
2024-02-20T05:32:15.663Z,22.00
2024-02-20T05:34:43.672Z,22.60
2024-02-20T05:37:12.881Z,21.43
2024-02-20T05:39:39.880Z,20.20
2024-02-20T05:42:08.696Z,16.57
2024-02-20T05:44:36.462Z,18.33
2024-02-20T05:47:04.336Z,18.23
2024-02-20T05:49:32.435Z,23.20
2024-02-20T05:52:00.301Z,16.40
2024-02-20T05:54:29.721Z,20.07
2024-02-20T05:56:58.829Z,16.10
2024-02-20T05:59:26.775Z,14.60
2024-02-20T06:01:54.580Z,17.20
2024-02-20T06:04:22.686Z,19.33
2024-02-20T06:06:51.793Z,18.30
2024-02-20T06:09:19.952Z,17.77
2024-02-20T06:11:49.505Z,16.13
2024-02-20T06:14:18.015Z,18.97
2024-02-20T06:16:46.568Z,18.80
2024-02-20T06:19:15.028Z,17.47
2024-02-20T06:21:44.141Z,14.40
2024-02-20T06:24:12.504Z,15.30
2024-02-20T06:26:40.476Z,12.73
2024-02-20T06:29:12.072Z,20.70
2024-02-20T06:31:40.051Z,17.37
2024-02-20T06:34:10.902Z,16.90
2024-02-20T06:36:39.685Z,17.00
2024-02-20T06:39:08.077Z,17.13
2024-02-20T06:41:36.144Z,20.87
2024-02-20T06:44:04.058Z,19.10
2024-02-20T06:46:33.371Z,17.13
2024-02-20T06:49:01.217Z,19.37
2024-02-20T06:51:29.263Z,12.30
2024-02-20T06:53:58.093Z,19.03
2024-02-20T06:56:25.854Z,11.30
2024-02-20T06:58:53.908Z,13.90
2024-02-20T07:01:21.944Z,16.77
2024-02-20T07:03:54.095Z,19.87
2024-02-20T07:06:22.616Z,20.63
2024-02-20T07:08:50.380Z,13.27
2024-02-20T07:11:18.625Z,18.47
2024-02-20T07:13:46.843Z,13.67
2024-02-20T07:16:15.963Z,17.73
2024-02-20T07:18:44.606Z,13.97
2024-02-20T07:21:13.681Z,14.00
2024-02-20T07:23:41.415Z,20.43
2024-02-20T07:26:09.362Z,10.10
2024-02-20T07:28:37.903Z,13.47
2024-02-20T07:31:06.139Z,18.27
2024-02-20T07:33:37.380Z,16.63
2024-02-20T07:36:07.097Z,17.13
2024-02-20T07:38:36.432Z,12.43
2024-02-20T07:41:04.783Z,16.37
2024-02-20T07:43:35.719Z,13.80
2024-02-20T07:46:06.035Z,11.53
2024-02-20T07:48:34.252Z,10.63
2024-02-20T07:51:02.183Z,13.47
2024-02-20T07:53:30.612Z,17.93
2024-02-20T07:56:01.413Z,14.30
2024-02-20T07:58:37.179Z,19.53
2024-02-20T08:01:10.910Z,11.20
2024-02-20T08:03:39.306Z,12.93
2024-02-20T08:06:07.629Z,11.47
2024-02-20T08:08:35.968Z,16.73
2024-02-20T08:11:05.585Z,13.00
2024-02-20T08:13:33.662Z,15.50
2024-02-20T08:16:02.952Z,13.13
2024-02-20T08:18:31.264Z,13.03
2024-02-20T08:20:59.337Z,11.90
2024-02-20T08:23:27.130Z,11.90
2024-02-20T08:25:55.182Z,12.77
2024-02-20T08:28:24.323Z,15.13
2024-02-20T08:30:52.602Z,9.87
2024-02-20T08:33:20.329Z,12.13
2024-02-20T08:35:48.561Z,14.83
2024-02-20T08:38:17.184Z,20.20
2024-02-20T08:40:45.263Z,12.80
2024-02-20T08:43:13.389Z,21.37
2024-02-20T08:45:42.847Z,12.20
2024-02-20T08:48:11.036Z,12.73
2024-02-20T08:50:39.266Z,14.93
2024-02-20T08:53:11.970Z,15.20
2024-02-20T08:55:40.624Z,16.20
2024-02-20T08:58:08.621Z,12.90
2024-02-20T09:00:36.820Z,17.53
2024-02-20T09:03:06.690Z,12.47
2024-02-20T09:05:36.294Z,15.97
2024-02-20T09:08:04.436Z,15.27
2024-02-20T09:10:32.641Z,11.60
2024-02-20T09:13:00.980Z,13.83
2024-02-20T09:15:28.994Z,11.90
2024-02-20T09:17:56.967Z,11.40
2024-02-20T09:20:26.693Z,13.23
2024-02-20T09:22:55.096Z,16.43
2024-02-20T09:25:23.446Z,12.40
2024-02-20T09:27:51.184Z,14.97
2024-02-20T09:30:19.363Z,10.00
2024-02-20T09:32:48.003Z,11.23
2024-02-20T09:35:16.171Z,12.40
2024-02-20T09:37:45.665Z,10.50
2024-02-20T09:40:18.032Z,12.57
2024-02-20T09:42:47.443Z,15.03
2024-02-20T09:45:18.449Z,9.47
2024-02-20T09:47:46.827Z,9.10
2024-02-20T09:50:16.337Z,10.37
2024-02-20T09:52:46.824Z,12.00
2024-02-20T09:55:14.627Z,16.20
2024-02-20T09:57:42.675Z,14.70
2024-02-20T10:00:11.854Z,14.17
2024-02-20T10:02:40.254Z,11.67
2024-02-20T10:05:08.271Z,15.80
2024-02-20T10:07:39.759Z,18.80
2024-02-20T10:10:10.422Z,13.53
2024-02-20T10:12:40.598Z,11.47
2024-02-20T10:15:10.171Z,8.50
2024-02-20T10:17:38.385Z,13.13
2024-02-20T10:20:11.830Z,13.77
2024-02-20T10:22:44.093Z,13.43
2024-02-20T10:25:15.744Z,13.60
2024-02-20T10:27:45.030Z,12.10
2024-02-20T10:30:13.851Z,14.67
2024-02-20T10:32:41.909Z,14.13
2024-02-20T10:35:11.840Z,16.43
2024-02-20T10:37:40.597Z,11.20
2024-02-20T10:40:17.610Z,12.30
2024-02-20T10:42:56.200Z,13.47
2024-02-20T10:45:24.273Z,11.90
2024-02-20T10:47:53.694Z,14.17
2024-02-20T10:50:21.650Z,9.00
2024-02-20T10:52:51.624Z,10.83
2024-02-20T10:55:27.783Z,9.53
2024-02-20T10:58:04.910Z,12.77
2024-02-20T11:00:35.896Z,13.27
2024-02-20T11:03:06.650Z,11.37
2024-02-20T11:05:35.086Z,17.47
2024-02-20T11:08:08.014Z,17.13
2024-02-20T11:10:37.551Z,14.37
2024-02-20T11:13:15.883Z,14.50
2024-02-20T11:15:44.373Z,10.23
2024-02-20T11:18:20.317Z,12.40
2024-02-20T11:20:48.395Z,9.03
2024-02-20T11:23:16.162Z,11.40
2024-02-20T11:25:44.496Z,16.33
2024-02-20T11:28:18.300Z,11.77
2024-02-20T11:30:47.759Z,12.17
2024-02-20T11:33:18.343Z,10.97
2024-02-20T11:35:48.181Z,9.80
2024-02-20T11:38:18.016Z,14.03
2024-02-20T11:40:46.253Z,10.77
2024-02-20T11:43:14.122Z,10.90
2024-02-20T11:45:43.336Z,11.30
2024-02-20T11:48:12.202Z,9.83
2024-02-20T11:50:41.642Z,8.87
2024-02-20T11:53:10.702Z,15.70
2024-02-20T11:55:42.225Z,7.63
2024-02-20T11:58:10.498Z,9.47
2024-02-20T12:00:39.352Z,11.93
2024-02-20T12:03:09.335Z,9.10
2024-02-20T12:05:41.721Z,9.10
2024-02-20T12:08:14.287Z,10.27
2024-02-20T12:10:42.394Z,10.10
2024-02-20T12:13:17.416Z,8.73
2024-02-20T12:15:46.304Z,12.80
2024-02-20T12:18:23.971Z,13.50
2024-02-20T12:20:52.658Z,13.53
2024-02-20T12:23:20.757Z,8.60
2024-02-20T12:25:49.223Z,11.60
2024-02-20T12:28:17.037Z,12.83
2024-02-20T12:30:49.858Z,7.20
2024-02-20T12:33:19.361Z,14.10
2024-02-20T12:35:47.570Z,12.10
2024-02-20T12:38:15.851Z,10.60
2024-02-20T12:40:44.198Z,12.63
2024-02-20T12:43:13.778Z,12.57
2024-02-20T12:45:41.952Z,17.47
2024-02-20T12:48:10.443Z,16.30
2024-02-20T12:50:40.140Z,13.30
2024-02-20T12:53:08.276Z,9.00
2024-02-20T12:55:38.601Z,14.30
2024-02-20T12:58:07.241Z,9.67
2024-02-20T13:00:35.256Z,11.90
2024-02-20T13:03:04.673Z,13.07
2024-02-20T13:05:33.685Z,10.43
2024-02-20T13:08:05.843Z,13.93
2024-02-20T13:10:33.988Z,7.87
2024-02-20T13:13:02.987Z,10.67
2024-02-20T13:15:31.041Z,12.40
2024-02-20T13:17:59.226Z,12.57
2024-02-20T13:20:30.825Z,14.20
2024-02-20T13:22:59.006Z,12.37
2024-02-20T13:25:28.525Z,10.60
2024-02-20T13:27:56.738Z,12.40
2024-02-20T13:30:24.850Z,12.60
2024-02-20T13:32:52.932Z,12.40
2024-02-20T13:35:21.332Z,9.80
2024-02-20T13:37:50.744Z,8.70
2024-02-20T13:40:19.547Z,11.43
2024-02-20T13:42:49.055Z,5.17
2024-02-20T13:45:18.164Z,9.33
2024-02-20T13:47:46.870Z,13.90
2024-02-20T13:50:14.743Z,13.40
2024-02-20T13:52:42.845Z,13.57
2024-02-20T13:55:12.277Z,10.90
2024-02-20T13:57:40.055Z,10.70
2024-02-20T14:00:10.865Z,10.60
2024-02-20T14:02:38.792Z,11.30
2024-02-20T14:05:08.427Z,10.23
2024-02-20T14:07:36.992Z,8.27
2024-02-20T14:10:05.974Z,11.80
2024-02-20T14:12:34.083Z,7.87
2024-02-20T14:15:04.062Z,11.30
2024-02-20T14:17:34.380Z,12.47
2024-02-20T14:20:05.199Z,12.80
2024-02-20T14:22:33.186Z,9.27
2024-02-20T14:25:01.128Z,9.53
2024-02-20T14:27:29.335Z,14.37
2024-02-20T14:29:57.964Z,13.00
2024-02-20T14:32:26.227Z,9.20
2024-02-20T14:34:55.697Z,10.43
2024-02-20T14:37:23.482Z,11.03
2024-02-20T14:39:51.245Z,9.03
2024-02-20T14:42:19.029Z,10.47
2024-02-20T14:44:46.974Z,8.40
2024-02-20T14:47:14.980Z,11.50
2024-02-20T14:49:43.686Z,7.77
2024-02-20T14:52:13.108Z,21.00
2024-02-20T14:54:42.884Z,26.07
2024-02-20T14:57:11.387Z,21.90
2024-02-20T14:59:39.402Z,31.03
2024-02-20T15:02:07.445Z,33.50
2024-02-20T15:04:37.550Z,25.70
2024-02-20T15:07:06.872Z,39.37
2024-02-20T15:09:36.391Z,47.40
2024-02-20T15:12:04.638Z,37.43
2024-02-20T15:14:32.855Z,38.73
2024-02-20T15:17:01.504Z,36.50
2024-02-20T15:19:29.391Z,31.20
2024-02-20T15:21:58.505Z,24.60
2024-02-20T15:24:27.285Z,22.17
2024-02-20T15:26:56.361Z,23.77
2024-02-20T15:29:24.428Z,28.83
2024-02-20T15:31:52.698Z,29.77
2024-02-20T15:34:21.051Z,21.30
2024-02-20T15:36:49.642Z,25.10
2024-02-20T15:39:17.397Z,22.83
2024-02-20T15:41:45.159Z,23.30
2024-02-20T15:44:14.230Z,21.17
2024-02-20T15:46:43.256Z,24.30
2024-02-20T15:49:11.223Z,24.37
2024-02-20T15:51:43.368Z,23.43
2024-02-20T15:54:11.126Z,25.63
2024-02-20T15:56:39.510Z,22.50
2024-02-20T15:59:07.590Z,29.30
2024-02-20T16:01:37.516Z,21.13
2024-02-20T16:04:06.210Z,15.83
2024-02-20T16:06:34.832Z,19.20
2024-02-20T16:09:04.446Z,26.03
2024-02-20T16:11:32.476Z,24.93
2024-02-20T16:14:00.450Z,20.10
2024-02-20T16:16:28.742Z,18.23
2024-02-20T16:18:58.154Z,14.77
2024-02-20T16:21:26.306Z,18.90
2024-02-20T16:23:54.031Z,17.57
2024-02-20T16:26:22.088Z,16.53
2024-02-20T16:28:50.805Z,18.77
2024-02-20T16:31:18.820Z,18.27
2024-02-20T16:33:47.514Z,20.63
2024-02-20T16:36:17.157Z,19.07
2024-02-20T16:38:45.157Z,19.03
2024-02-20T16:41:13.796Z,22.03
2024-02-20T16:43:43.019Z,18.97
2024-02-20T16:46:11.004Z,19.63
2024-02-20T16:48:38.822Z,17.90
2024-02-20T16:51:06.653Z,17.90
2024-02-20T16:53:36.907Z,18.77
2024-02-20T16:56:05.402Z,13.20
2024-02-20T16:58:34.147Z,16.07
2024-02-20T17:01:02.023Z,14.77
2024-02-20T17:03:29.962Z,16.83
2024-02-20T17:05:57.848Z,15.47
2024-02-20T17:08:28.648Z,16.83
2024-02-20T17:10:58.052Z,14.50
2024-02-20T17:13:26.127Z,14.47
2024-02-20T17:15:54.359Z,17.23
2024-02-20T17:18:22.947Z,13.13
2024-02-20T17:20:51.225Z,12.33
2024-02-20T17:23:19.068Z,17.07
2024-02-20T17:25:46.918Z,19.03
2024-02-20T17:28:16.684Z,14.17
2024-02-20T17:30:46.737Z,20.07
2024-02-20T17:33:14.776Z,13.33
2024-02-20T17:35:43.030Z,13.10
2024-02-20T17:38:11.405Z,12.87
2024-02-20T17:40:39.765Z,11.30
2024-02-20T17:43:07.832Z,18.00
2024-02-20T17:45:37.304Z,19.23
2024-02-20T17:48:06.002Z,17.20
2024-02-20T17:50:35.588Z,10.13
2024-02-20T17:53:03.730Z,15.03
2024-02-20T17:55:31.700Z,15.33
2024-02-20T17:57:59.739Z,11.17
2024-02-20T18:00:29.937Z,12.33
2024-02-20T18:03:39.219Z,15.00
2024-02-20T18:06:07.402Z,17.20
2024-02-20T18:08:36.199Z,15.90
2024-02-20T18:11:04.723Z,12.23
2024-02-20T18:13:32.738Z,13.73
2024-02-20T18:16:00.757Z,13.73
2024-02-20T18:18:29.942Z,14.53
2024-02-20T18:21:00.802Z,15.00
2024-02-20T18:23:29.023Z,15.93
2024-02-20T18:25:57.621Z,13.67
2024-02-20T18:28:26.084Z,13.23
2024-02-20T18:30:54.055Z,12.73
2024-02-20T18:33:22.094Z,28.90
2024-02-20T18:35:51.703Z,16.40
2024-02-20T18:38:19.880Z,15.27
2024-02-20T18:40:47.959Z,13.87
2024-02-20T18:43:16.103Z,13.40
2024-02-20T18:45:44.100Z,11.80
2024-02-20T18:48:12.585Z,14.67
2024-02-20T18:50:41.014Z,19.60
2024-02-20T18:53:11.534Z,16.47
2024-02-20T18:55:39.595Z,14.30
2024-02-20T18:58:08.231Z,16.60
2024-02-20T19:00:36.233Z,9.80
2024-02-20T19:03:04.464Z,20.40
2024-02-20T19:05:32.691Z,10.23
2024-02-20T19:08:00.804Z,12.07
2024-02-20T19:10:30.468Z,9.67
2024-02-20T19:12:59.102Z,11.37
2024-02-20T19:15:27.773Z,12.90
2024-02-20T19:17:55.777Z,16.03
2024-02-20T19:20:23.865Z,11.10
2024-02-20T19:22:51.763Z,17.10
2024-02-20T19:25:19.872Z,11.83
2024-02-20T19:27:49.443Z,11.10
2024-02-20T19:30:17.862Z,13.73
2024-02-20T19:32:46.028Z,10.53
2024-02-20T19:35:14.212Z,13.70
2024-02-20T19:37:42.386Z,12.60
2024-02-20T19:40:12.545Z,10.80
2024-02-20T19:42:40.444Z,18.63
2024-02-20T19:45:10.697Z,9.70
2024-02-20T19:47:38.570Z,14.40
2024-02-20T19:50:07.472Z,10.43
2024-02-20T19:52:35.555Z,13.73
2024-02-20T19:55:03.564Z,12.87
2024-02-20T19:57:31.640Z,11.60
2024-02-20T20:00:02.801Z,11.40
2024-02-20T20:02:33.258Z,8.93
2024-02-20T20:05:01.474Z,12.53
2024-02-20T20:07:29.729Z,11.90
2024-02-20T20:09:58.147Z,15.60
2024-02-20T20:12:26.227Z,10.03
2024-02-20T20:14:55.714Z,14.10
2024-02-20T20:17:25.339Z,13.97
2024-02-20T20:19:55.016Z,14.17
2024-02-20T20:22:22.924Z,10.00
2024-02-20T20:24:50.854Z,12.03
2024-02-20T20:27:18.908Z,12.10
2024-02-20T20:29:47.120Z,10.03
2024-02-20T20:32:17.570Z,12.20
2024-02-20T20:34:46.045Z,13.13
2024-02-20T20:37:15.634Z,17.23
2024-02-20T20:39:44.110Z,13.50
2024-02-20T20:42:12.343Z,12.10
2024-02-20T20:44:42.128Z,11.67
2024-02-20T20:47:11.193Z,11.73
2024-02-20T20:49:43.841Z,11.60
2024-02-20T20:52:11.959Z,11.87
2024-02-20T20:54:41.557Z,10.10
2024-02-20T20:57:09.525Z,12.83
2024-02-20T20:59:37.956Z,9.87
2024-02-20T21:02:09.877Z,10.80
2024-02-20T21:04:45.599Z,18.00
2024-02-20T21:07:13.901Z,12.40
2024-02-20T21:09:44.975Z,15.23
2024-02-20T21:12:15.832Z,10.00
2024-02-20T21:14:43.800Z,10.30
2024-02-20T21:17:11.830Z,9.27
2024-02-20T21:19:40.507Z,8.60
2024-02-20T21:22:08.667Z,10.77
2024-02-20T21:24:36.849Z,16.23
2024-02-20T21:27:06.926Z,14.63
2024-02-20T21:29:35.194Z,13.80
2024-02-20T21:32:03.188Z,13.33
2024-02-20T21:34:31.147Z,18.57
2024-02-20T21:36:58.970Z,13.60
2024-02-20T21:39:26.878Z,19.53
2024-02-20T21:41:55.000Z,10.77
2024-02-20T21:44:24.606Z,10.43
2024-02-20T21:46:52.755Z,10.43
2024-02-20T21:49:20.705Z,10.87
2024-02-20T21:51:51.125Z,18.10
2024-02-20T21:54:19.047Z,14.83
2024-02-20T21:56:47.259Z,13.07
2024-02-20T21:59:14.965Z,11.40
2024-02-20T22:01:44.713Z,12.27
2024-02-20T22:04:12.727Z,12.60
2024-02-20T22:06:40.975Z,12.67
2024-02-20T22:09:09.669Z,17.93
2024-02-20T22:11:37.885Z,10.33
2024-02-20T22:14:05.939Z,16.17
2024-02-20T22:16:34.058Z,11.77
2024-02-20T22:19:04.580Z,15.10
2024-02-20T22:21:32.722Z,7.50
2024-02-20T22:24:01.081Z,13.00
2024-02-20T22:26:30.452Z,15.27
2024-02-20T22:28:58.945Z,13.83
2024-02-20T22:31:27.142Z,13.67
2024-02-20T22:33:55.918Z,13.00
2024-02-20T22:36:26.294Z,13.47
2024-02-20T22:38:54.190Z,12.43
2024-02-20T22:41:22.125Z,9.43
2024-02-20T22:43:50.371Z,8.77
2024-02-20T22:46:18.329Z,14.20
2024-02-20T22:48:47.165Z,14.40
2024-02-20T22:51:15.523Z,11.20
2024-02-20T22:53:44.820Z,9.27
2024-02-20T22:56:15.538Z,14.03
2024-02-20T22:58:43.440Z,10.27
2024-02-20T23:01:11.973Z,11.40
2024-02-20T23:03:40.225Z,8.53
2024-02-20T23:06:08.364Z,10.47
2024-02-20T23:08:36.543Z,9.23
2024-02-20T23:11:05.966Z,10.03
2024-02-20T23:13:34.258Z,7.07
2024-02-20T23:16:02.494Z,9.33
2024-02-20T23:18:30.386Z,7.10
2024-02-20T23:20:58.468Z,12.73
2024-02-20T23:23:26.476Z,11.33
2024-02-20T23:25:54.888Z,11.17
2024-02-20T23:28:24.878Z,10.30
2024-02-20T23:30:52.631Z,13.30
2024-02-20T23:33:20.447Z,8.30
2024-02-20T23:35:48.536Z,12.13
2024-02-20T23:38:16.682Z,8.83
2024-02-20T23:40:44.754Z,11.23
2024-02-20T23:43:13.229Z,8.47
2024-02-20T23:45:42.544Z,13.00
2024-02-20T23:48:10.797Z,6.90
2024-02-20T23:50:39.041Z,11.37
2024-02-20T23:53:06.977Z,13.53
2024-02-20T23:55:35.112Z,12.00
2024-02-20T23:58:03.031Z,10.07
